sensor_id;sensor_type;location;lat;lon;timestamp;temperature;humidity
70366;DHT22;57787;48.216;12.396;2023-07-13T00:02:18;19.60;86.20
70366;DHT22;57787;48.216;12.396;2023-07-13T00:04:46;19.60;86.30
70366;DHT22;57787;48.216;12.396;2023-07-13T00:07:13;19.70;86.30
70366;DHT22;57787;48.216;12.396;2023-07-13T00:09:41;19.60;86.00
70366;DHT22;57787;48.216;12.396;2023-07-13T00:12:31;19.60;86.30
70366;DHT22;57787;48.216;12.396;2023-07-13T00:14:57;19.60;86.20
70366;DHT22;57787;48.216;12.396;2023-07-13T00:17:24;19.60;86.30
70366;DHT22;57787;48.216;12.396;2023-07-13T00:19:52;19.60;86.20
70366;DHT22;57787;48.216;12.396;2023-07-13T00:22:20;19.50;86.10
70366;DHT22;57787;48.216;12.396;2023-07-13T00:24:47;19.50;86.10
70366;DHT22;57787;48.216;12.396;2023-07-13T00:27:16;19.50;86.10
70366;DHT22;57787;48.216;12.396;2023-07-13T00:29:45;19.50;86.00
70366;DHT22;57787;48.216;12.396;2023-07-13T00:32:12;19.40;86.30
70366;DHT22;57787;48.216;12.396;2023-07-13T00:34:40;19.50;86.10
70366;DHT22;57787;48.216;12.396;2023-07-13T00:37:07;19.40;86.50
70366;DHT22;57787;48.216;12.396;2023-07-13T00:39:34;19.40;86.10
70366;DHT22;57787;48.216;12.396;2023-07-13T00:42:04;19.40;86.20
70366;DHT22;57787;48.216;12.396;2023-07-13T00:44:33;19.30;86.00
70366;DHT22;57787;48.216;12.396;2023-07-13T00:47:00;19.30;86.30
70366;DHT22;57787;48.216;12.396;2023-07-13T00:49:29;19.30;86.20
70366;DHT22;57787;48.216;12.396;2023-07-13T00:51:58;19.30;86.30
70366;DHT22;57787;48.216;12.396;2023-07-13T00:54:28;19.30;86.20
70366;DHT22;57787;48.216;12.396;2023-07-13T00:57:09;19.30;86.30
70366;DHT22;57787;48.216;12.396;2023-07-13T00:59:39;19.30;86.40
70366;DHT22;57787;48.216;12.396;2023-07-13T01:02:06;19.30;86.10
70366;DHT22;57787;48.216;12.396;2023-07-13T01:04:33;19.30;86.40
70366;DHT22;57787;48.216;12.396;2023-07-13T01:07:00;19.30;86.30
70366;DHT22;57787;48.216;12.396;2023-07-13T01:09:27;19.30;86.20
70366;DHT22;57787;48.216;12.396;2023-07-13T01:11:54;19.30;86.60
70366;DHT22;57787;48.216;12.396;2023-07-13T01:14:24;19.30;86.40
70366;DHT22;57787;48.216;12.396;2023-07-13T01:16:52;19.30;86.60
70366;DHT22;57787;48.216;12.396;2023-07-13T01:19:24;19.30;86.70
70366;DHT22;57787;48.216;12.396;2023-07-13T01:21:52;19.30;86.80
70366;DHT22;57787;48.216;12.396;2023-07-13T01:24:21;19.30;86.80
70366;DHT22;57787;48.216;12.396;2023-07-13T01:26:48;19.30;86.90
70366;DHT22;57787;48.216;12.396;2023-07-13T01:29:14;19.30;87.00
70366;DHT22;57787;48.216;12.396;2023-07-13T01:31:41;19.30;86.90
70366;DHT22;57787;48.216;12.396;2023-07-13T01:34:10;19.30;86.80
70366;DHT22;57787;48.216;12.396;2023-07-13T01:36:38;19.30;86.70
70366;DHT22;57787;48.216;12.396;2023-07-13T01:39:06;19.30;86.70
70366;DHT22;57787;48.216;12.396;2023-07-13T01:41:33;19.30;86.50
70366;DHT22;57787;48.216;12.396;2023-07-13T01:44:01;19.30;86.70
70366;DHT22;57787;48.216;12.396;2023-07-13T01:46:28;19.30;86.80
70366;DHT22;57787;48.216;12.396;2023-07-13T01:48:55;19.30;86.50
70366;DHT22;57787;48.216;12.396;2023-07-13T01:51:22;19.30;86.40
70366;DHT22;57787;48.216;12.396;2023-07-13T01:53:52;19.30;86.10
70366;DHT22;57787;48.216;12.396;2023-07-13T01:56:19;19.30;86.40
70366;DHT22;57787;48.216;12.396;2023-07-13T01:58:46;19.30;86.70
70366;DHT22;57787;48.216;12.396;2023-07-13T02:01:14;19.30;86.30
70366;DHT22;57787;48.216;12.396;2023-07-13T02:03:41;19.30;86.00
70366;DHT22;57787;48.216;12.396;2023-07-13T02:06:08;19.30;86.40
70366;DHT22;57787;48.216;12.396;2023-07-13T02:08:34;19.30;86.30
70366;DHT22;57787;48.216;12.396;2023-07-13T02:11:02;19.30;86.30
70366;DHT22;57787;48.216;12.396;2023-07-13T02:13:29;19.30;86.40
70366;DHT22;57787;48.216;12.396;2023-07-13T02:15:56;19.30;86.40
70366;DHT22;57787;48.216;12.396;2023-07-13T02:18:23;19.30;86.10
70366;DHT22;57787;48.216;12.396;2023-07-13T02:20:50;19.30;86.30
70366;DHT22;57787;48.216;12.396;2023-07-13T02:23:16;19.30;86.40
70366;DHT22;57787;48.216;12.396;2023-07-13T02:25:44;19.30;86.50
70366;DHT22;57787;48.216;12.396;2023-07-13T02:28:10;19.30;86.60
70366;DHT22;57787;48.216;12.396;2023-07-13T02:30:41;19.30;86.50
70366;DHT22;57787;48.216;12.396;2023-07-13T02:33:10;19.30;86.80
70366;DHT22;57787;48.216;12.396;2023-07-13T02:35:38;19.30;86.70
70366;DHT22;57787;48.216;12.396;2023-07-13T02:38:08;19.30;86.80
70366;DHT22;57787;48.216;12.396;2023-07-13T02:40:37;19.20;86.80
70366;DHT22;57787;48.216;12.396;2023-07-13T02:43:08;19.20;86.70
70366;DHT22;57787;48.216;12.396;2023-07-13T02:45:38;19.30;86.40
70366;DHT22;57787;48.216;12.396;2023-07-13T02:48:13;19.30;86.60
70366;DHT22;57787;48.216;12.396;2023-07-13T02:50:45;19.20;86.40
70366;DHT22;57787;48.216;12.396;2023-07-13T02:53:15;19.20;86.90
70366;DHT22;57787;48.216;12.396;2023-07-13T02:55:53;19.20;86.80
70366;DHT22;57787;48.216;12.396;2023-07-13T02:58:20;19.20;86.70
70366;DHT22;57787;48.216;12.396;2023-07-13T03:00:48;19.20;86.30
70366;DHT22;57787;48.216;12.396;2023-07-13T03:03:17;19.20;86.70
70366;DHT22;57787;48.216;12.396;2023-07-13T03:05:47;19.20;86.90
70366;DHT22;57787;48.216;12.396;2023-07-13T03:08:18;19.20;86.70
70366;DHT22;57787;48.216;12.396;2023-07-13T03:10:46;19.20;86.80
70366;DHT22;57787;48.216;12.396;2023-07-13T03:13:14;19.20;86.90
70366;DHT22;57787;48.216;12.396;2023-07-13T03:15:43;19.20;86.90
70366;DHT22;57787;48.216;12.396;2023-07-13T03:18:15;19.20;87.00
70366;DHT22;57787;48.216;12.396;2023-07-13T03:20:44;19.20;87.00
70366;DHT22;57787;48.216;12.396;2023-07-13T03:23:11;19.20;87.20
70366;DHT22;57787;48.216;12.396;2023-07-13T03:25:39;19.10;87.30
70366;DHT22;57787;48.216;12.396;2023-07-13T03:28:06;19.10;87.20
70366;DHT22;57787;48.216;12.396;2023-07-13T03:30:34;19.20;87.20
70366;DHT22;57787;48.216;12.396;2023-07-13T03:33:02;19.10;87.30
70366;DHT22;57787;48.216;12.396;2023-07-13T03:35:35;19.10;87.30
70366;DHT22;57787;48.216;12.396;2023-07-13T03:38:03;19.10;87.10
70366;DHT22;57787;48.216;12.396;2023-07-13T03:40:31;19.10;87.30
70366;DHT22;57787;48.216;12.396;2023-07-13T03:42:58;19.10;87.10
70366;DHT22;57787;48.216;12.396;2023-07-13T03:45:25;19.10;86.80
70366;DHT22;57787;48.216;12.396;2023-07-13T03:47:54;19.10;87.10
70366;DHT22;57787;48.216;12.396;2023-07-13T03:50:23;19.10;87.20
70366;DHT22;57787;48.216;12.396;2023-07-13T03:52:51;19.10;86.90
70366;DHT22;57787;48.216;12.396;2023-07-13T03:55:18;19.10;87.00
70366;DHT22;57787;48.216;12.396;2023-07-13T03:57:46;19.10;87.00
70366;DHT22;57787;48.216;12.396;2023-07-13T04:00:13;19.10;87.10
70366;DHT22;57787;48.216;12.396;2023-07-13T04:02:41;19.10;87.20
70366;DHT22;57787;48.216;12.396;2023-07-13T04:05:08;19.10;87.10
70366;DHT22;57787;48.216;12.396;2023-07-13T04:07:37;19.10;86.90
70366;DHT22;57787;48.216;12.396;2023-07-13T04:10:05;19.10;86.90
70366;DHT22;57787;48.216;12.396;2023-07-13T04:12:33;19.10;87.20
70366;DHT22;57787;48.216;12.396;2023-07-13T04:15:01;19.10;87.20
70366;DHT22;57787;48.216;12.396;2023-07-13T04:17:28;19.10;87.20
70366;DHT22;57787;48.216;12.396;2023-07-13T04:19:55;19.10;87.00
70366;DHT22;57787;48.216;12.396;2023-07-13T04:22:23;19.10;87.10
70366;DHT22;57787;48.216;12.396;2023-07-13T04:24:51;19.10;86.70
70366;DHT22;57787;48.216;12.396;2023-07-13T04:27:18;19.10;86.90
70366;DHT22;57787;48.216;12.396;2023-07-13T04:29:45;19.20;87.00
70366;DHT22;57787;48.216;12.396;2023-07-13T04:32:15;19.20;87.00
70366;DHT22;57787;48.216;12.396;2023-07-13T04:34:42;19.20;86.70
70366;DHT22;57787;48.216;12.396;2023-07-13T04:37:09;19.20;87.10
70366;DHT22;57787;48.216;12.396;2023-07-13T04:39:36;19.20;87.00
70366;DHT22;57787;48.216;12.396;2023-07-13T04:42:04;19.20;87.30
70366;DHT22;57787;48.216;12.396;2023-07-13T04:44:32;19.20;87.00
70366;DHT22;57787;48.216;12.396;2023-07-13T04:46:59;19.20;86.90
70366;DHT22;57787;48.216;12.396;2023-07-13T04:49:26;19.20;86.70
70366;DHT22;57787;48.216;12.396;2023-07-13T04:51:53;19.20;86.80
70366;DHT22;57787;48.216;12.396;2023-07-13T04:54:22;19.20;86.90
70366;DHT22;57787;48.216;12.396;2023-07-13T04:56:48;19.20;86.90
70366;DHT22;57787;48.216;12.396;2023-07-13T04:59:15;19.20;87.00
70366;DHT22;57787;48.216;12.396;2023-07-13T05:01:43;19.20;87.20
70366;DHT22;57787;48.216;12.396;2023-07-13T05:04:12;19.20;87.20
70366;DHT22;57787;48.216;12.396;2023-07-13T05:06:41;19.20;87.20
70366;DHT22;57787;48.216;12.396;2023-07-13T05:09:08;19.20;87.50
70366;DHT22;57787;48.216;12.396;2023-07-13T05:11:35;19.20;87.60
70366;DHT22;57787;48.216;12.396;2023-07-13T05:14:03;19.30;87.60
70366;DHT22;57787;48.216;12.396;2023-07-13T05:16:30;19.30;87.60
70366;DHT22;57787;48.216;12.396;2023-07-13T05:18:59;19.30;87.40
70366;DHT22;57787;48.216;12.396;2023-07-13T05:21:26;19.30;87.20
70366;DHT22;57787;48.216;12.396;2023-07-13T05:23:54;19.30;87.10
70366;DHT22;57787;48.216;12.396;2023-07-13T05:26:23;19.40;86.80
70366;DHT22;57787;48.216;12.396;2023-07-13T05:28:51;19.40;86.80
70366;DHT22;57787;48.216;12.396;2023-07-13T05:31:20;19.40;86.60
70366;DHT22;57787;48.216;12.396;2023-07-13T05:33:48;19.40;86.90
70366;DHT22;57787;48.216;12.396;2023-07-13T05:36:15;19.50;86.50
70366;DHT22;57787;48.216;12.396;2023-07-13T05:38:42;19.60;86.20
70366;DHT22;57787;48.216;12.396;2023-07-13T05:41:10;19.60;86.00
70366;DHT22;57787;48.216;12.396;2023-07-13T05:43:38;19.60;85.60
70366;DHT22;57787;48.216;12.396;2023-07-13T05:46:05;19.60;85.80
70366;DHT22;57787;48.216;12.396;2023-07-13T05:48:33;19.70;85.80
70366;DHT22;57787;48.216;12.396;2023-07-13T05:51:00;19.70;85.80
70366;DHT22;57787;48.216;12.396;2023-07-13T05:53:28;19.80;85.80
70366;DHT22;57787;48.216;12.396;2023-07-13T05:55:56;19.90;85.90
70366;DHT22;57787;48.216;12.396;2023-07-13T05:58:25;20.00;85.40
70366;DHT22;57787;48.216;12.396;2023-07-13T06:01:03;20.10;85.40
70366;DHT22;57787;48.216;12.396;2023-07-13T06:03:32;20.30;85.10
70366;DHT22;57787;48.216;12.396;2023-07-13T06:06:02;20.30;84.80
70366;DHT22;57787;48.216;12.396;2023-07-13T06:08:31;20.40;84.30
70366;DHT22;57787;48.216;12.396;2023-07-13T06:11:06;20.40;84.10
70366;DHT22;57787;48.216;12.396;2023-07-13T06:13:34;20.40;83.90
70366;DHT22;57787;48.216;12.396;2023-07-13T06:16:02;20.40;83.70
70366;DHT22;57787;48.216;12.396;2023-07-13T06:18:31;20.30;83.40
70366;DHT22;57787;48.216;12.396;2023-07-13T06:20:59;20.30;83.40
70366;DHT22;57787;48.216;12.396;2023-07-13T06:23:26;20.30;83.20
70366;DHT22;57787;48.216;12.396;2023-07-13T06:25:54;20.30;83.40
70366;DHT22;57787;48.216;12.396;2023-07-13T06:28:21;20.30;83.50
70366;DHT22;57787;48.216;12.396;2023-07-13T06:30:49;20.30;83.20
70366;DHT22;57787;48.216;12.396;2023-07-13T06:33:16;20.30;83.90
70366;DHT22;57787;48.216;12.396;2023-07-13T06:35:44;20.40;83.20
70366;DHT22;57787;48.216;12.396;2023-07-13T06:38:11;20.40;83.20
70366;DHT22;57787;48.216;12.396;2023-07-13T06:40:38;20.40;83.30
70366;DHT22;57787;48.216;12.396;2023-07-13T06:43:06;20.50;83.80
70366;DHT22;57787;48.216;12.396;2023-07-13T06:45:36;20.50;83.30
70366;DHT22;57787;48.216;12.396;2023-07-13T06:48:07;20.60;83.40
70366;DHT22;57787;48.216;12.396;2023-07-13T06:50:35;20.70;82.50
70366;DHT22;57787;48.216;12.396;2023-07-13T06:53:03;20.80;82.30
70366;DHT22;57787;48.216;12.396;2023-07-13T06:55:30;20.80;82.60
70366;DHT22;57787;48.216;12.396;2023-07-13T06:57:58;20.80;82.50
70366;DHT22;57787;48.216;12.396;2023-07-13T07:00:25;20.80;82.60
70366;DHT22;57787;48.216;12.396;2023-07-13T07:02:53;20.90;80.70
70366;DHT22;57787;48.216;12.396;2023-07-13T07:05:21;21.00;81.80
70366;DHT22;57787;48.216;12.396;2023-07-13T07:07:51;21.30;82.20
70366;DHT22;57787;48.216;12.396;2023-07-13T07:10:20;21.50;81.00
70366;DHT22;57787;48.216;12.396;2023-07-13T07:12:48;21.80;81.00
70366;DHT22;57787;48.216;12.396;2023-07-13T07:15:16;22.00;79.50
70366;DHT22;57787;48.216;12.396;2023-07-13T07:17:44;22.20;79.00
70366;DHT22;57787;48.216;12.396;2023-07-13T07:20:14;22.30;76.70
70366;DHT22;57787;48.216;12.396;2023-07-13T07:22:42;22.40;77.30
70366;DHT22;57787;48.216;12.396;2023-07-13T07:25:10;22.50;77.50
70366;DHT22;57787;48.216;12.396;2023-07-13T07:27:38;22.50;77.20
70366;DHT22;57787;48.216;12.396;2023-07-13T07:30:08;22.50;77.00
70366;DHT22;57787;48.216;12.396;2023-07-13T07:32:38;22.50;76.60
70366;DHT22;57787;48.216;12.396;2023-07-13T07:35:08;22.50;77.20
70366;DHT22;57787;48.216;12.396;2023-07-13T07:37:35;22.50;76.90
70366;DHT22;57787;48.216;12.396;2023-07-13T07:40:07;22.50;75.60
70366;DHT22;57787;48.216;12.396;2023-07-13T07:42:38;22.50;76.00
70366;DHT22;57787;48.216;12.396;2023-07-13T07:45:06;22.40;75.00
70366;DHT22;57787;48.216;12.396;2023-07-13T07:47:34;22.30;76.10
70366;DHT22;57787;48.216;12.396;2023-07-13T07:50:01;22.20;74.40
70366;DHT22;57787;48.216;12.396;2023-07-13T07:52:29;22.30;75.30
70366;DHT22;57787;48.216;12.396;2023-07-13T07:54:56;22.30;76.00
70366;DHT22;57787;48.216;12.396;2023-07-13T07:57:44;22.40;75.60
70366;DHT22;57787;48.216;12.396;2023-07-13T08:00:15;22.50;76.60
70366;DHT22;57787;48.216;12.396;2023-07-13T08:02:46;22.60;73.20
70366;DHT22;57787;48.216;12.396;2023-07-13T08:05:17;22.60;75.10
70366;DHT22;57787;48.216;12.396;2023-07-13T08:07:49;22.60;75.30
70366;DHT22;57787;48.216;12.396;2023-07-13T08:10:18;22.60;74.30
70366;DHT22;57787;48.216;12.396;2023-07-13T08:12:47;22.70;74.70
70366;DHT22;57787;48.216;12.396;2023-07-13T08:15:18;22.60;74.10
70366;DHT22;57787;48.216;12.396;2023-07-13T08:17:48;22.60;74.50
70366;DHT22;57787;48.216;12.396;2023-07-13T08:20:16;22.80;74.60
70366;DHT22;57787;48.216;12.396;2023-07-13T08:22:43;22.80;76.10
70366;DHT22;57787;48.216;12.396;2023-07-13T08:25:10;22.90;75.20
70366;DHT22;57787;48.216;12.396;2023-07-13T08:27:39;22.90;75.00
70366;DHT22;57787;48.216;12.396;2023-07-13T08:30:06;23.00;74.60
70366;DHT22;57787;48.216;12.396;2023-07-13T08:32:36;22.90;74.80
70366;DHT22;57787;48.216;12.396;2023-07-13T08:35:04;22.90;73.80
70366;DHT22;57787;48.216;12.396;2023-07-13T08:37:31;22.90;73.80
70366;DHT22;57787;48.216;12.396;2023-07-13T08:39:58;22.80;74.30
70366;DHT22;57787;48.216;12.396;2023-07-13T08:43:13;22.80;73.90
70366;DHT22;57787;48.216;12.396;2023-07-13T08:45:25;22.60;74.30
70366;DHT22;57787;48.216;12.396;2023-07-13T08:48:08;22.50;75.50
70366;DHT22;57787;48.216;12.396;2023-07-13T08:50:39;22.40;74.70
70366;DHT22;57787;48.216;12.396;2023-07-13T08:53:30;22.60;75.70
70366;DHT22;57787;48.216;12.396;2023-07-13T08:55:59;22.80;74.80
70366;DHT22;57787;48.216;12.396;2023-07-13T08:58:27;22.80;74.80
70366;DHT22;57787;48.216;12.396;2023-07-13T09:00:58;22.80;73.90
70366;DHT22;57787;48.216;12.396;2023-07-13T09:03:29;22.90;73.10
70366;DHT22;57787;48.216;12.396;2023-07-13T09:05:58;23.00;73.90
70366;DHT22;57787;48.216;12.396;2023-07-13T09:14:00;23.10;73.40
70366;DHT22;57787;48.216;12.396;2023-07-13T09:16:32;23.20;73.90
70366;DHT22;57787;48.216;12.396;2023-07-13T09:19:02;23.20;73.70
70366;DHT22;57787;48.216;12.396;2023-07-13T09:21:35;23.30;70.90
70366;DHT22;57787;48.216;12.396;2023-07-13T09:24:20;23.40;71.80
70366;DHT22;57787;48.216;12.396;2023-07-13T09:26:49;23.50;71.10
70366;DHT22;57787;48.216;12.396;2023-07-13T09:29:27;23.60;70.60
70366;DHT22;57787;48.216;12.396;2023-07-13T09:31:55;23.60;71.40
70366;DHT22;57787;48.216;12.396;2023-07-13T09:34:28;23.60;72.00
70366;DHT22;57787;48.216;12.396;2023-07-13T09:36:58;23.60;72.20
70366;DHT22;57787;48.216;12.396;2023-07-13T09:39:33;23.50;68.60
70366;DHT22;57787;48.216;12.396;2023-07-13T09:42:16;23.50;71.10
70366;DHT22;57787;48.216;12.396;2023-07-13T09:47:17;23.50;71.00
70366;DHT22;57787;48.216;12.396;2023-07-13T09:49:45;23.30;70.90
70366;DHT22;57787;48.216;12.396;2023-07-13T09:52:16;23.30;70.50
70366;DHT22;57787;48.216;12.396;2023-07-13T09:54:45;23.30;71.40
70366;DHT22;57787;48.216;12.396;2023-07-13T09:57:14;23.10;71.30
70366;DHT22;57787;48.216;12.396;2023-07-13T09:59:48;23.10;69.00
70366;DHT22;57787;48.216;12.396;2023-07-13T10:02:34;23.20;66.80
70366;DHT22;57787;48.216;12.396;2023-07-13T10:05:07;23.20;68.70
70366;DHT22;57787;48.216;12.396;2023-07-13T10:07:38;23.30;64.50
70366;DHT22;57787;48.216;12.396;2023-07-13T10:10:13;23.40;63.30
70366;DHT22;57787;48.216;12.396;2023-07-13T10:12:41;23.50;62.20
70366;DHT22;57787;48.216;12.396;2023-07-13T10:15:17;23.50;61.50
70366;DHT22;57787;48.216;12.396;2023-07-13T10:17:52;23.40;64.20
70366;DHT22;57787;48.216;12.396;2023-07-13T10:20:20;23.30;62.90
70366;DHT22;57787;48.216;12.396;2023-07-13T10:22:54;23.30;64.20
70366;DHT22;57787;48.216;12.396;2023-07-13T10:25:25;23.20;61.40
70366;DHT22;57787;48.216;12.396;2023-07-13T10:27:58;23.20;65.10
70366;DHT22;57787;48.216;12.396;2023-07-13T10:30:33;23.00;67.30
70366;DHT22;57787;48.216;12.396;2023-07-13T10:33:10;23.00;68.40
70366;DHT22;57787;48.216;12.396;2023-07-13T10:35:39;22.90;69.50
70366;DHT22;57787;48.216;12.396;2023-07-13T10:38:11;22.80;65.90
70366;DHT22;57787;48.216;12.396;2023-07-13T10:43:37;22.70;65.80
70366;DHT22;57787;48.216;12.396;2023-07-13T10:46:10;22.70;69.10
70366;DHT22;57787;48.216;12.396;2023-07-13T10:48:38;22.80;68.30
70366;DHT22;57787;48.216;12.396;2023-07-13T10:51:06;22.60;64.80
70366;DHT22;57787;48.216;12.396;2023-07-13T10:53:35;22.60;65.40
70366;DHT22;57787;48.216;12.396;2023-07-13T10:58:39;22.70;66.70
70366;DHT22;57787;48.216;12.396;2023-07-13T11:03:46;22.70;65.70
70366;DHT22;57787;48.216;12.396;2023-07-13T11:08:53;22.70;69.80
70366;DHT22;57787;48.216;12.396;2023-07-13T11:18:51;22.80;70.30
70366;DHT22;57787;48.216;12.396;2023-07-13T11:21:19;22.80;66.70
70366;DHT22;57787;48.216;12.396;2023-07-13T11:26:51;23.00;63.10
70366;DHT22;57787;48.216;12.396;2023-07-13T11:29:24;23.10;61.90
70366;DHT22;57787;48.216;12.396;2023-07-13T11:31:53;23.30;64.20
70366;DHT22;57787;48.216;12.396;2023-07-13T11:34:23;23.60;63.30
70366;DHT22;57787;48.216;12.396;2023-07-13T11:36:52;23.80;62.00
70366;DHT22;57787;48.216;12.396;2023-07-13T11:39:35;24.00;61.20
70366;DHT22;57787;48.216;12.396;2023-07-13T11:42:05;24.20;56.40
70366;DHT22;57787;48.216;12.396;2023-07-13T11:44:35;24.30;56.80
70366;DHT22;57787;48.216;12.396;2023-07-13T11:47:17;24.40;56.90
70366;DHT22;57787;48.216;12.396;2023-07-13T11:49:45;24.60;57.60
70366;DHT22;57787;48.216;12.396;2023-07-13T11:52:15;24.90;56.90
70366;DHT22;57787;48.216;12.396;2023-07-13T11:54:52;25.10;55.90
70366;DHT22;57787;48.216;12.396;2023-07-13T11:59:53;25.70;53.30
70366;DHT22;57787;48.216;12.396;2023-07-13T12:02:26;25.90;52.70
70366;DHT22;57787;48.216;12.396;2023-07-13T12:04:55;26.10;48.00
70366;DHT22;57787;48.216;12.396;2023-07-13T12:07:23;26.40;51.10
70366;DHT22;57787;48.216;12.396;2023-07-13T12:09:50;26.60;49.80
70366;DHT22;57787;48.216;12.396;2023-07-13T12:12:19;26.80;49.30
70366;DHT22;57787;48.216;12.396;2023-07-13T12:14:46;26.90;46.90
70366;DHT22;57787;48.216;12.396;2023-07-13T12:17:19;26.60;40.60
70366;DHT22;57787;48.216;12.396;2023-07-13T12:19:47;26.50;42.80
70366;DHT22;57787;48.216;12.396;2023-07-13T12:22:16;26.40;44.30
70366;DHT22;57787;48.216;12.396;2023-07-13T12:24:46;26.20;41.70
70366;DHT22;57787;48.216;12.396;2023-07-13T12:27:23;26.10;45.50
70366;DHT22;57787;48.216;12.396;2023-07-13T12:29:52;25.90;45.00
70366;DHT22;57787;48.216;12.396;2023-07-13T12:32:20;25.80;45.60
70366;DHT22;57787;48.216;12.396;2023-07-13T12:34:53;25.90;45.90
70366;DHT22;57787;48.216;12.396;2023-07-13T12:37:20;25.90;44.60
70366;DHT22;57787;48.216;12.396;2023-07-13T12:39:48;26.00;45.60
70366;DHT22;57787;48.216;12.396;2023-07-13T12:42:19;26.10;47.80
70366;DHT22;57787;48.216;12.396;2023-07-13T12:44:53;26.30;45.30
70366;DHT22;57787;48.216;12.396;2023-07-13T12:47:20;26.30;45.60
70366;DHT22;57787;48.216;12.396;2023-07-13T12:49:49;26.30;45.20
70366;DHT22;57787;48.216;12.396;2023-07-13T12:52:22;26.30;44.80
70366;DHT22;57787;48.216;12.396;2023-07-13T12:54:54;26.20;43.30
70366;DHT22;57787;48.216;12.396;2023-07-13T12:57:37;26.30;45.70
70366;DHT22;57787;48.216;12.396;2023-07-13T13:00:09;26.30;43.90
70366;DHT22;57787;48.216;12.396;2023-07-13T13:02:46;26.10;44.30
70366;DHT22;57787;48.216;12.396;2023-07-13T13:05:17;26.20;44.60
70366;DHT22;57787;48.216;12.396;2023-07-13T13:07:45;26.20;45.10
70366;DHT22;57787;48.216;12.396;2023-07-13T13:10:15;26.30;44.80
70366;DHT22;57787;48.216;12.396;2023-07-13T13:12:42;26.30;45.10
70366;DHT22;57787;48.216;12.396;2023-07-13T13:15:10;26.40;45.90
70366;DHT22;57787;48.216;12.396;2023-07-13T13:17:38;26.20;43.70
70366;DHT22;57787;48.216;12.396;2023-07-13T13:20:15;26.30;46.50
70366;DHT22;57787;48.216;12.396;2023-07-13T13:22:43;26.40;47.90
70366;DHT22;57787;48.216;12.396;2023-07-13T13:25:11;26.60;45.50
70366;DHT22;57787;48.216;12.396;2023-07-13T13:27:39;26.70;47.70
70366;DHT22;57787;48.216;12.396;2023-07-13T13:30:13;26.80;47.80
70366;DHT22;57787;48.216;12.396;2023-07-13T13:32:50;27.00;48.60
70366;DHT22;57787;48.216;12.396;2023-07-13T13:35:19;27.00;43.90
70366;DHT22;57787;48.216;12.396;2023-07-13T13:37:47;26.90;43.10
70366;DHT22;57787;48.216;12.396;2023-07-13T13:40:19;26.80;45.00
70366;DHT22;57787;48.216;12.396;2023-07-13T13:42:48;26.70;45.90
70366;DHT22;57787;48.216;12.396;2023-07-13T13:45:16;26.60;43.70
70366;DHT22;57787;48.216;12.396;2023-07-13T13:47:44;26.70;46.00
70366;DHT22;57787;48.216;12.396;2023-07-13T13:50:15;26.80;44.90
70366;DHT22;57787;48.216;12.396;2023-07-13T13:52:46;27.10;46.60
70366;DHT22;57787;48.216;12.396;2023-07-13T13:55:15;27.10;46.10
70366;DHT22;57787;48.216;12.396;2023-07-13T13:57:44;27.00;43.20
70366;DHT22;57787;48.216;12.396;2023-07-13T14:00:12;27.00;46.70
70366;DHT22;57787;48.216;12.396;2023-07-13T14:02:45;27.00;44.80
70366;DHT22;57787;48.216;12.396;2023-07-13T14:05:23;26.90;44.50
70366;DHT22;57787;48.216;12.396;2023-07-13T14:07:53;27.10;44.90
70366;DHT22;57787;48.216;12.396;2023-07-13T14:10:21;27.00;45.30
70366;DHT22;57787;48.216;12.396;2023-07-13T14:12:52;27.00;46.30
70366;DHT22;57787;48.216;12.396;2023-07-13T14:15:25;27.00;45.70
70366;DHT22;57787;48.216;12.396;2023-07-13T14:17:53;26.90;43.90
70366;DHT22;57787;48.216;12.396;2023-07-13T14:20:22;26.80;43.10
70366;DHT22;57787;48.216;12.396;2023-07-13T14:22:51;26.80;46.80
70366;DHT22;57787;48.216;12.396;2023-07-13T14:25:20;26.90;45.60
70366;DHT22;57787;48.216;12.396;2023-07-13T14:27:49;26.90;48.50
70366;DHT22;57787;48.216;12.396;2023-07-13T14:30:18;26.80;45.60
70366;DHT22;57787;48.216;12.396;2023-07-13T14:32:46;26.80;46.00
70366;DHT22;57787;48.216;12.396;2023-07-13T14:35:15;26.80;49.40
70366;DHT22;57787;48.216;12.396;2023-07-13T14:37:43;26.70;47.50
70366;DHT22;57787;48.216;12.396;2023-07-13T14:40:14;26.70;46.90
70366;DHT22;57787;48.216;12.396;2023-07-13T14:42:46;26.70;47.40
70366;DHT22;57787;48.216;12.396;2023-07-13T14:45:15;26.70;48.40
70366;DHT22;57787;48.216;12.396;2023-07-13T14:47:43;26.80;51.50
70366;DHT22;57787;48.216;12.396;2023-07-13T14:50:18;26.80;52.70
70366;DHT22;57787;48.216;12.396;2023-07-13T14:52:46;26.70;50.20
70366;DHT22;57787;48.216;12.396;2023-07-13T14:55:16;26.60;49.50
70366;DHT22;57787;48.216;12.396;2023-07-13T14:57:43;26.40;52.10
70366;DHT22;57787;48.216;12.396;2023-07-13T15:00:17;26.30;49.10
70366;DHT22;57787;48.216;12.396;2023-07-13T15:02:47;26.30;51.60
70366;DHT22;57787;48.216;12.396;2023-07-13T15:05:22;26.30;50.80
70366;DHT22;57787;48.216;12.396;2023-07-13T15:07:52;26.50;50.30
70366;DHT22;57787;48.216;12.396;2023-07-13T15:10:20;26.60;47.40
70366;DHT22;57787;48.216;12.396;2023-07-13T15:12:48;26.60;44.90
70366;DHT22;57787;48.216;12.396;2023-07-13T15:15:15;26.40;44.90
70366;DHT22;57787;48.216;12.396;2023-07-13T15:17:44;26.40;47.40
70366;DHT22;57787;48.216;12.396;2023-07-13T15:22:47;26.40;52.50
70366;DHT22;57787;48.216;12.396;2023-07-13T15:25:25;26.30;49.60
70366;DHT22;57787;48.216;12.396;2023-07-13T15:27:52;26.40;51.20
70366;DHT22;57787;48.216;12.396;2023-07-13T15:30:20;26.40;49.60
70366;DHT22;57787;48.216;12.396;2023-07-13T15:32:49;26.40;50.20
70366;DHT22;57787;48.216;12.396;2023-07-13T15:35:17;26.40;50.40
70366;DHT22;57787;48.216;12.396;2023-07-13T15:37:45;26.30;47.10
70366;DHT22;57787;48.216;12.396;2023-07-13T15:40:14;26.40;47.00
70366;DHT22;57787;48.216;12.396;2023-07-13T15:42:42;26.50;48.20
70366;DHT22;57787;48.216;12.396;2023-07-13T15:45:16;26.50;49.50
70366;DHT22;57787;48.216;12.396;2023-07-13T15:47:44;26.70;48.10
70366;DHT22;57787;48.216;12.396;2023-07-13T15:50:13;26.70;45.50
70366;DHT22;57787;48.216;12.396;2023-07-13T15:52:41;26.80;47.80
70366;DHT22;57787;48.216;12.396;2023-07-13T15:55:10;26.80;46.70
70366;DHT22;57787;48.216;12.396;2023-07-13T15:57:37;26.70;45.20
70366;DHT22;57787;48.216;12.396;2023-07-13T16:00:12;26.70;46.30
70366;DHT22;57787;48.216;12.396;2023-07-13T16:02:39;26.70;48.90
70366;DHT22;57787;48.216;12.396;2023-07-13T16:05:06;26.60;48.30